createdAt,value
2022-08-17T00:01:52.316Z,16.33
2022-08-17T00:04:20.361Z,17.15
2022-08-17T00:06:49.171Z,19.60
2022-08-17T00:09:19.005Z,15.18
2022-08-17T00:12:35.041Z,15.63
2022-08-17T00:14:36.086Z,17.85
2022-08-17T00:17:04.839Z,15.65
2022-08-17T00:19:32.723Z,15.30
2022-08-17T00:22:32.410Z,21.90
2022-08-17T00:24:49.870Z,17.55
2022-08-17T00:27:16.744Z,19.55
2022-08-17T00:29:45.944Z,15.25
2022-08-17T00:33:12.321Z,16.95
2022-08-17T00:35:05.900Z,15.63
2022-08-17T00:37:32.628Z,18.90
2022-08-17T00:39:59.541Z,16.23
2022-08-17T00:42:30.792Z,18.25
2022-08-17T00:44:58.155Z,16.20
2022-08-17T00:47:24.825Z,16.65
2022-08-17T00:49:51.820Z,18.10
2022-08-17T00:52:23.127Z,20.33
2022-08-17T00:54:54.029Z,17.83
2022-08-17T00:57:31.068Z,22.58
2022-08-17T01:00:03.769Z,20.90
2022-08-17T01:02:42.540Z,16.42
2022-08-17T01:05:19.026Z,16.77
2022-08-17T01:07:47.948Z,20.98
2022-08-17T01:11:00.477Z,16.48
2022-08-17T01:13:04.312Z,18.08
2022-08-17T01:15:35.192Z,17.65
2022-08-17T01:18:01.940Z,19.55
2022-08-17T01:20:28.674Z,14.95
2022-08-17T01:22:55.546Z,17.48
2022-08-17T01:25:22.575Z,17.02
2022-08-17T01:27:49.888Z,16.05
2022-08-17T01:30:58.300Z,16.73
2022-08-17T01:33:04.453Z,19.25
2022-08-17T01:35:31.550Z,17.80
2022-08-17T01:37:58.199Z,17.15
2022-08-17T01:40:32.937Z,16.50
2022-08-17T01:43:05.946Z,16.60
2022-08-17T01:45:39.190Z,17.40
2022-08-17T01:48:05.974Z,15.48
2022-08-17T01:50:37.903Z,17.63
2022-08-17T01:53:11.468Z,16.63
2022-08-17T01:55:47.227Z,20.17
2022-08-17T01:58:13.913Z,17.67
2022-08-17T02:00:46.769Z,18.25
2022-08-17T02:03:27.122Z,23.63
2022-08-17T02:05:53.797Z,19.42
2022-08-17T02:08:37.298Z,17.45
2022-08-17T02:11:12.149Z,16.95
2022-08-17T02:13:39.235Z,16.90
2022-08-17T02:16:06.085Z,16.95
2022-08-17T02:18:33.092Z,17.85
2022-08-17T02:20:59.906Z,17.75
2022-08-17T02:23:30.241Z,18.52
2022-08-17T02:25:59.304Z,17.65
2022-08-17T02:28:26.621Z,18.05
2022-08-17T02:31:02.095Z,19.30
2022-08-17T02:33:42.270Z,17.35
2022-08-17T02:36:12.729Z,19.35
2022-08-17T02:38:40.708Z,18.60
2022-08-17T02:41:08.441Z,21.38
2022-08-17T02:43:35.511Z,15.82
2022-08-17T02:46:02.162Z,22.40
2022-08-17T02:48:31.207Z,18.88
2022-08-17T02:50:59.841Z,20.15
2022-08-17T02:53:27.390Z,17.85
2022-08-17T02:55:58.583Z,20.00
2022-08-17T02:58:34.786Z,24.10
2022-08-17T03:01:07.349Z,20.73
2022-08-17T03:03:34.831Z,17.23
2022-08-17T03:06:02.258Z,20.58
2022-08-17T03:08:29.723Z,19.60
2022-08-17T03:10:57.343Z,18.75
2022-08-17T03:13:24.249Z,27.35
2022-08-17T03:15:51.010Z,16.73
2022-08-17T03:18:25.141Z,21.13
2022-08-17T03:20:58.455Z,18.55
2022-08-17T03:23:25.870Z,19.13
2022-08-17T03:25:55.061Z,19.88
2022-08-17T03:28:23.347Z,23.13
2022-08-17T03:30:51.309Z,18.60
2022-08-17T03:33:19.013Z,22.00
2022-08-17T03:35:46.065Z,17.95
2022-08-17T03:38:15.860Z,19.08
2022-08-17T03:40:58.058Z,18.75
2022-08-17T03:43:31.217Z,23.92
2022-08-17T03:46:26.917Z,20.05
2022-08-17T03:49:14.407Z,20.95
2022-08-17T03:51:59.587Z,23.10
2022-08-17T03:54:44.857Z,20.23
2022-08-17T03:57:12.303Z,15.63
2022-08-17T03:59:39.665Z,19.23
2022-08-17T04:02:23.338Z,20.98
2022-08-17T04:04:51.135Z,17.90
2022-08-17T04:07:24.561Z,19.23
2022-08-17T04:09:51.261Z,18.02
2022-08-17T04:12:21.123Z,21.65
2022-08-17T04:14:53.445Z,17.00
2022-08-17T04:17:26.393Z,18.90
2022-08-17T04:19:55.138Z,18.23
2022-08-17T04:22:33.203Z,22.90
2022-08-17T04:25:18.354Z,22.73
2022-08-17T04:27:44.952Z,20.10
2022-08-17T04:30:12.181Z,18.38
2022-08-17T04:33:19.161Z,18.27
2022-08-17T04:35:46.097Z,20.83
2022-08-17T04:38:17.601Z,20.73
2022-08-17T04:41:03.533Z,20.10
2022-08-17T04:43:32.777Z,18.77
2022-08-17T04:46:02.417Z,18.10
2022-08-17T04:48:36.522Z,21.38
2022-08-17T04:51:13.896Z,21.23
2022-08-17T04:53:42.866Z,18.63
2022-08-17T04:56:16.036Z,20.85
2022-08-17T04:58:50.073Z,20.52
2022-08-17T05:01:23.433Z,17.25
2022-08-17T05:03:51.151Z,19.33
2022-08-17T05:06:17.764Z,21.67
2022-08-17T05:08:44.380Z,18.75
2022-08-17T05:11:11.026Z,17.15
2022-08-17T05:13:37.620Z,20.17
2022-08-17T05:16:05.029Z,20.83
2022-08-17T05:18:32.495Z,17.88
2022-08-17T05:20:59.200Z,24.52
2022-08-17T05:23:35.553Z,20.70
2022-08-17T05:26:25.495Z,22.30
2022-08-17T05:28:58.518Z,22.05
2022-08-17T05:31:29.490Z,17.55
2022-08-17T05:33:56.473Z,20.42
2022-08-17T05:36:41.623Z,17.40
2022-08-17T05:39:15.868Z,22.30
2022-08-17T05:41:43.361Z,18.10
2022-08-17T05:44:10.773Z,19.48
2022-08-17T05:46:42.587Z,20.25
2022-08-17T05:49:11.047Z,19.13
2022-08-17T05:51:56.362Z,17.92
2022-08-17T05:54:31.779Z,17.63
2022-08-17T05:57:03.637Z,24.13
2022-08-17T05:59:44.808Z,30.48
2022-08-17T06:02:47.067Z,24.23
2022-08-17T06:05:45.455Z,30.17
2022-08-17T06:08:12.016Z,22.13
2022-08-17T06:11:03.007Z,17.13
2022-08-17T06:13:48.268Z,18.92
2022-08-17T06:16:33.341Z,19.13
2022-08-17T06:19:23.034Z,19.27
2022-08-17T06:21:53.683Z,17.17
2022-08-17T06:24:29.215Z,16.67
2022-08-17T06:27:10.242Z,19.02
2022-08-17T06:29:46.056Z,14.52
2022-08-17T06:32:13.579Z,17.95
2022-08-17T06:34:41.639Z,15.00
2022-08-17T06:37:15.388Z,14.65
2022-08-17T06:39:53.874Z,19.80
2022-08-17T06:42:54.813Z,13.35
2022-08-17T06:45:34.798Z,18.25
2022-08-17T06:48:15.414Z,17.55
2022-08-17T06:50:53.482Z,13.82
2022-08-17T06:53:25.835Z,14.07
2022-08-17T06:55:55.104Z,19.42
2022-08-17T06:58:29.854Z,13.65
2022-08-17T07:01:01.028Z,13.10
2022-08-17T07:04:11.466Z,12.38
2022-08-17T07:06:42.974Z,11.38
2022-08-17T07:09:35.898Z,10.20
2022-08-17T07:12:04.666Z,13.50
2022-08-17T07:14:37.044Z,12.43
2022-08-17T07:17:13.482Z,12.40
2022-08-17T07:19:44.095Z,12.38
2022-08-17T07:22:53.582Z,12.88
2022-08-17T07:25:26.256Z,13.00
2022-08-17T07:27:57.431Z,16.20
2022-08-17T07:30:27.980Z,16.85
2022-08-17T07:33:08.348Z,11.52
2022-08-17T07:35:44.278Z,15.23
2022-08-17T07:38:30.623Z,12.85
2022-08-17T07:40:57.787Z,16.13
2022-08-17T07:43:29.632Z,12.30
2022-08-17T07:46:16.288Z,11.43
2022-08-17T07:48:46.486Z,16.45
2022-08-17T07:51:42.197Z,15.38
2022-08-17T07:54:19.532Z,15.07
2022-08-17T07:56:48.076Z,15.25
2022-08-17T07:59:18.070Z,14.52
2022-08-17T08:01:58.842Z,12.60
2022-08-17T08:07:20.573Z,14.27
2022-08-17T08:10:11.124Z,11.80
2022-08-17T08:12:48.034Z,12.48
2022-08-17T08:15:20.447Z,18.73
2022-08-17T08:18:03.000Z,15.57
2022-08-17T08:20:53.312Z,12.85
2022-08-17T08:23:33.712Z,12.75
2022-08-17T08:26:26.497Z,17.73
2022-08-17T08:29:18.425Z,12.77
2022-08-17T08:32:22.532Z,11.88
2022-08-17T08:35:07.397Z,12.80
2022-08-17T08:37:58.346Z,10.65
2022-08-17T08:40:33.679Z,13.70
2022-08-17T08:43:22.661Z,11.02
2022-08-17T08:46:19.692Z,13.02
2022-08-17T08:48:58.673Z,11.05
2022-08-17T08:51:55.619Z,11.52
2022-08-17T08:54:37.250Z,13.45
2022-08-17T08:57:26.822Z,11.07
2022-08-17T09:00:13.326Z,15.03
2022-08-17T09:03:17.487Z,11.77
2022-08-17T09:06:33.615Z,11.97
2022-08-17T09:09:45.392Z,13.70
2022-08-17T09:12:25.408Z,13.15
2022-08-17T09:15:01.441Z,12.63
2022-08-17T09:17:40.132Z,11.88
2022-08-17T09:20:27.916Z,16.00
2022-08-17T09:23:07.146Z,16.58
2022-08-17T09:25:54.909Z,15.05
2022-08-17T09:28:37.305Z,12.65
2022-08-17T09:31:11.644Z,12.20
2022-08-17T09:33:45.436Z,12.43
2022-08-17T09:36:19.140Z,14.85
2022-08-17T09:39:27.756Z,12.13
2022-08-17T09:42:05.009Z,12.48
2022-08-17T09:45:12.828Z,16.40
2022-08-17T09:47:56.246Z,14.48
2022-08-17T09:51:04.456Z,11.45
2022-08-17T09:53:22.286Z,10.73
2022-08-17T09:56:26.497Z,13.50
2022-08-17T09:59:13.967Z,13.05
2022-08-17T10:01:51.952Z,12.02
2022-08-17T10:04:49.984Z,13.95
2022-08-17T10:07:19.616Z,10.00
2022-08-17T10:09:55.951Z,9.73
2022-08-17T10:12:47.011Z,10.65
2022-08-17T10:15:44.899Z,9.23
2022-08-17T10:18:49.133Z,9.80
2022-08-17T10:21:37.596Z,11.27
2022-08-17T10:24:33.263Z,11.85
2022-08-17T10:27:04.935Z,12.43
2022-08-17T10:29:50.015Z,12.07
2022-08-17T10:32:31.410Z,11.45
2022-08-17T10:35:30.236Z,11.15
2022-08-17T10:38:31.106Z,11.93
2022-08-17T10:41:15.853Z,11.30
2022-08-17T10:44:02.182Z,12.70
2022-08-17T10:46:40.278Z,11.60
2022-08-17T10:49:12.626Z,11.07
2022-08-17T10:51:42.015Z,13.88
2022-08-17T10:54:38.398Z,12.30
2022-08-17T10:57:27.481Z,9.55
2022-08-17T10:59:56.167Z,12.90
2022-08-17T11:02:31.631Z,11.10
2022-08-17T11:05:01.003Z,11.88
2022-08-17T11:08:08.105Z,11.55
2022-08-17T11:11:01.149Z,10.27
2022-08-17T11:13:52.637Z,14.70
2022-08-17T11:16:48.115Z,13.18
2022-08-17T11:19:24.910Z,12.95
2022-08-17T11:22:06.522Z,11.77
2022-08-17T11:24:39.145Z,11.27
2022-08-17T11:27:26.672Z,10.13
2022-08-17T11:30:02.160Z,9.82
2022-08-17T11:32:54.785Z,12.98
2022-08-17T11:35:21.865Z,13.55
2022-08-17T11:38:15.031Z,8.75
2022-08-17T11:43:25.377Z,17.83
2022-08-17T11:46:02.217Z,11.95
2022-08-17T11:49:06.404Z,10.65
2022-08-17T11:52:01.327Z,9.75
2022-08-17T11:54:33.612Z,9.73
2022-08-17T11:57:26.555Z,11.25
2022-08-17T11:59:58.960Z,12.80
2022-08-17T12:02:31.640Z,9.95
2022-08-17T12:05:12.367Z,12.00
2022-08-17T12:08:05.516Z,9.07
2022-08-17T12:10:49.372Z,14.02
2022-08-17T12:13:18.453Z,12.07
2022-08-17T12:15:49.715Z,10.82
2022-08-17T12:18:46.499Z,12.93
2022-08-17T12:21:29.122Z,11.98
2022-08-17T12:24:10.314Z,9.32
2022-08-17T12:26:37.390Z,9.35
2022-08-17T12:29:18.327Z,12.80
2022-08-17T12:32:02.144Z,13.45
2022-08-17T12:34:36.594Z,10.02
2022-08-17T12:37:07.958Z,12.48
2022-08-17T12:39:34.879Z,9.15
2022-08-17T12:42:02.949Z,15.30
2022-08-17T12:44:36.226Z,9.23
2022-08-17T12:47:21.867Z,14.68
2022-08-17T12:49:52.273Z,9.73
2022-08-17T12:52:29.557Z,10.55
2022-08-17T12:55:12.341Z,11.88
2022-08-17T12:57:38.889Z,10.40
2022-08-17T13:00:22.041Z,10.90
2022-08-17T13:02:52.897Z,13.45
2022-08-17T13:05:29.964Z,9.23
2022-08-17T13:07:58.888Z,12.77
2022-08-17T13:10:33.136Z,10.07
2022-08-17T13:13:06.036Z,8.70
2022-08-17T13:15:44.730Z,8.70
2022-08-17T13:18:39.170Z,9.93
2022-08-17T13:21:23.864Z,11.30
2022-08-17T13:24:13.906Z,9.98
2022-08-17T13:27:08.069Z,9.02
2022-08-17T13:32:12.950Z,10.23
2022-08-17T13:35:13.476Z,9.93
2022-08-17T13:37:42.633Z,8.93
2022-08-17T13:40:09.411Z,12.23
2022-08-17T13:42:48.092Z,13.70
2022-08-17T13:45:34.906Z,11.25
2022-08-17T13:48:08.850Z,13.07
2022-08-17T13:51:04.703Z,12.55
2022-08-17T13:53:47.614Z,10.32
2022-08-17T13:56:33.404Z,9.85
2022-08-17T13:59:12.515Z,10.18
2022-08-17T14:01:41.990Z,15.30
2022-08-17T14:04:14.894Z,9.40
2022-08-17T14:07:21.558Z,12.32
2022-08-17T14:09:50.601Z,9.05
2022-08-17T14:12:21.716Z,11.73
2022-08-17T14:14:49.666Z,11.60
2022-08-17T14:17:16.587Z,11.45
2022-08-17T14:19:43.256Z,10.68
2022-08-17T14:22:19.532Z,8.73
2022-08-17T14:24:46.424Z,10.35
2022-08-17T14:27:13.057Z,10.68
2022-08-17T14:29:41.275Z,10.25
2022-08-17T14:32:18.429Z,12.07
2022-08-17T14:34:46.141Z,10.32
2022-08-17T14:37:13.327Z,11.35
2022-08-17T14:39:40.199Z,9.82
2022-08-17T14:42:07.086Z,10.30
2022-08-17T14:44:33.870Z,11.50
2022-08-17T14:47:01.690Z,9.18
2022-08-17T14:49:30.296Z,11.52
2022-08-17T14:51:57.445Z,10.70
2022-08-17T14:54:33.525Z,11.07
2022-08-17T14:57:22.184Z,9.40
2022-08-17T14:59:53.386Z,9.55
2022-08-17T15:02:29.347Z,9.30
2022-08-17T15:05:04.161Z,10.20
2022-08-17T15:07:31.495Z,13.00
2022-08-17T15:10:02.355Z,10.10
2022-08-17T15:12:33.257Z,11.02
2022-08-17T15:15:01.890Z,9.98
2022-08-17T15:17:44.677Z,11.25
2022-08-17T15:20:28.097Z,10.65
2022-08-17T15:22:56.288Z,10.68
2022-08-17T15:25:28.802Z,14.07
2022-08-17T15:27:56.144Z,9.57
2022-08-17T15:30:24.243Z,9.18
2022-08-17T15:32:55.005Z,13.98
2022-08-17T15:35:28.752Z,12.07
2022-08-17T15:37:58.012Z,10.77
2022-08-17T15:40:25.162Z,13.95
2022-08-17T15:42:52.007Z,9.18
2022-08-17T15:45:24.634Z,10.07
2022-08-17T15:47:52.557Z,10.20
2022-08-17T15:50:19.609Z,13.50
2022-08-17T15:52:47.571Z,9.90
2022-08-17T15:55:15.421Z,9.43
2022-08-17T15:57:42.132Z,11.57
2022-08-17T16:00:10.110Z,9.57
2022-08-17T16:03:44.586Z,9.35
2022-08-17T16:05:28.177Z,10.05
2022-08-17T16:07:57.755Z,10.05
2022-08-17T16:10:35.151Z,10.38
2022-08-17T16:13:03.868Z,10.50
2022-08-17T16:15:31.789Z,11.02
2022-08-17T16:17:58.802Z,9.93
2022-08-17T16:20:25.528Z,14.93
2022-08-17T16:22:52.367Z,12.00
2022-08-17T16:25:21.970Z,19.27
2022-08-17T16:27:53.523Z,10.82
2022-08-17T16:30:23.203Z,10.18
2022-08-17T16:32:53.936Z,9.90
2022-08-17T16:35:22.673Z,12.38
2022-08-17T16:37:49.327Z,9.82
2022-08-17T16:40:17.369Z,10.23
2022-08-17T16:42:45.952Z,10.48
2022-08-17T16:45:16.995Z,9.55
2022-08-17T16:47:44.573Z,10.43
2022-08-17T16:50:14.104Z,10.77
2022-08-17T16:52:41.695Z,12.85
2022-08-17T16:55:13.363Z,9.15
2022-08-17T16:57:47.566Z,10.25
2022-08-17T17:00:19.297Z,11.85
2022-08-17T17:02:49.494Z,12.13
2022-08-17T17:05:38.194Z,11.88
2022-08-17T17:08:12.641Z,13.07
2022-08-17T17:10:50.785Z,13.35
2022-08-17T17:13:54.613Z,14.98
2022-08-17T17:16:34.361Z,11.85
2022-08-17T17:19:13.014Z,14.48
2022-08-17T17:22:05.058Z,12.25
2022-08-17T17:24:41.920Z,11.88
2022-08-17T17:27:14.295Z,12.18
2022-08-17T17:30:07.604Z,11.27
2022-08-17T17:32:40.776Z,11.38
2022-08-17T17:35:19.011Z,11.87
2022-08-17T17:37:46.865Z,12.55
2022-08-17T17:40:20.476Z,10.27
2022-08-17T17:42:50.387Z,13.48
2022-08-17T17:45:23.905Z,11.88
2022-08-17T17:47:50.921Z,11.05
2022-08-17T17:50:33.170Z,10.68
2022-08-17T17:53:05.266Z,11.80
2022-08-17T17:55:46.514Z,11.68
2022-08-17T17:58:21.408Z,11.23
2022-08-17T18:01:09.540Z,11.88
2022-08-17T18:03:54.953Z,12.25
2022-08-17T18:06:24.190Z,11.57
2022-08-17T18:08:59.509Z,14.68
2022-08-17T18:11:54.852Z,17.30
2022-08-17T18:14:55.562Z,16.85
2022-08-17T18:17:22.290Z,14.13
2022-08-17T18:19:49.040Z,12.02
2022-08-17T18:22:22.149Z,16.00
2022-08-17T18:24:56.078Z,12.98
2022-08-17T18:27:32.177Z,14.68
2022-08-17T18:30:07.157Z,16.88
2022-08-17T18:32:41.470Z,15.98
2022-08-17T18:35:08.008Z,13.77
2022-08-17T18:37:46.039Z,19.55
2022-08-17T18:40:21.576Z,14.02
2022-08-17T18:42:57.110Z,10.93
2022-08-17T18:45:39.607Z,14.50
2022-08-17T18:48:19.266Z,14.40
2022-08-17T18:50:46.138Z,12.13
2022-08-17T18:53:34.544Z,14.55
2022-08-17T18:56:23.267Z,12.98
2022-08-17T18:59:04.594Z,15.38
2022-08-17T19:01:59.869Z,15.23
2022-08-17T19:04:33.877Z,16.70
2022-08-17T19:07:19.343Z,16.35
2022-08-17T19:12:49.164Z,18.10
2022-08-17T19:15:22.623Z,12.02
2022-08-17T19:18:03.203Z,13.10
2022-08-17T19:20:36.002Z,13.05
2022-08-17T19:23:11.596Z,12.25
2022-08-17T19:25:46.643Z,13.75
2022-08-17T19:28:23.074Z,16.52
2022-08-17T19:30:58.712Z,15.57
2022-08-17T19:33:26.003Z,16.45
2022-08-17T19:36:21.533Z,13.73
2022-08-17T19:39:09.721Z,18.35
2022-08-17T19:41:58.248Z,15.20
2022-08-17T19:44:53.108Z,15.85
2022-08-17T19:47:53.778Z,18.80
2022-08-17T19:50:30.676Z,19.60
2022-08-17T19:53:27.721Z,14.55
2022-08-17T19:56:16.397Z,14.25
2022-08-17T19:58:59.432Z,16.60
2022-08-17T20:01:51.296Z,15.98
2022-08-17T20:04:32.442Z,16.48
2022-08-17T20:07:24.326Z,15.20
2022-08-17T20:10:05.319Z,15.80
2022-08-17T20:12:38.062Z,15.85
2022-08-17T20:15:25.692Z,13.85
2022-08-17T20:17:53.024Z,17.15
2022-08-17T20:20:38.266Z,18.30
2022-08-17T20:23:19.804Z,16.17
2022-08-17T20:26:05.171Z,14.80
2022-08-17T20:28:35.268Z,13.93
2022-08-17T20:31:25.444Z,16.73
2022-08-17T20:33:55.469Z,18.95
2022-08-17T20:36:24.116Z,17.08
2022-08-17T20:38:59.779Z,18.48
2022-08-17T20:41:29.314Z,17.02
2022-08-17T20:43:59.058Z,17.02
2022-08-17T20:46:37.893Z,14.05
2022-08-17T20:49:18.349Z,13.00
2022-08-17T20:52:07.864Z,15.90
2022-08-17T20:54:55.097Z,13.55
2022-08-17T20:57:36.736Z,18.63
2022-08-17T21:00:27.592Z,15.98
2022-08-17T21:03:23.159Z,17.50
2022-08-17T21:06:17.219Z,15.55
2022-08-17T21:08:54.835Z,13.35
2022-08-17T21:12:02.765Z,17.90
2022-08-17T21:14:34.159Z,13.05
2022-08-17T21:17:26.353Z,14.50
2022-08-17T21:20:14.850Z,14.00
2022-08-17T21:23:20.751Z,14.98
2022-08-17T21:25:53.314Z,12.70
2022-08-17T21:29:01.070Z,13.25
2022-08-17T21:31:37.171Z,14.25
2022-08-17T21:34:16.223Z,16.92
2022-08-17T21:36:44.996Z,16.98
2022-08-17T21:39:14.301Z,14.13
2022-08-17T21:41:53.033Z,15.65
2022-08-17T21:44:21.602Z,13.73
2022-08-17T21:46:50.717Z,16.48
2022-08-17T21:49:25.488Z,15.48
2022-08-17T21:51:56.508Z,17.45
2022-08-17T21:54:29.859Z,16.48
2022-08-17T21:56:56.689Z,16.67
2022-08-17T21:59:27.279Z,18.83
2022-08-17T22:02:06.204Z,15.15
2022-08-17T22:04:40.276Z,24.58
2022-08-17T22:07:10.665Z,15.23
2022-08-17T22:09:46.624Z,20.55
2022-08-17T22:12:19.218Z,18.02
2022-08-17T22:14:53.026Z,20.58
2022-08-17T22:17:20.438Z,16.00
2022-08-17T22:19:55.015Z,16.70
2022-08-17T22:22:33.476Z,15.82
2022-08-17T22:25:07.301Z,14.82
2022-08-17T22:28:00.375Z,14.35
2022-08-17T22:30:31.641Z,13.98
2022-08-17T22:33:00.354Z,15.38
2022-08-17T22:35:34.704Z,14.15
2022-08-17T22:41:13.773Z,15.27
2022-08-17T22:43:43.191Z,16.35
2022-08-17T22:46:12.112Z,17.60
2022-08-17T22:48:47.716Z,17.83
2022-08-17T22:51:19.216Z,16.48
2022-08-17T22:54:08.348Z,18.25
2022-08-17T22:56:53.760Z,18.58
2022-08-17T22:59:42.368Z,16.15
2022-08-17T23:02:24.754Z,16.10
2022-08-17T23:04:57.690Z,15.40
2022-08-17T23:07:24.466Z,16.40
2022-08-17T23:09:52.895Z,16.23
2022-08-17T23:12:26.525Z,20.67
2022-08-17T23:14:58.492Z,17.13
2022-08-17T23:17:25.123Z,16.67
2022-08-17T23:19:51.862Z,21.40
2022-08-17T23:22:18.529Z,14.90
2022-08-17T23:24:48.980Z,20.80
2022-08-17T23:27:16.378Z,19.30
2022-08-17T23:29:43.487Z,17.15
2022-08-17T23:32:14.854Z,16.73
2022-08-17T23:34:43.131Z,16.85
2022-08-17T23:37:11.538Z,18.17
2022-08-17T23:39:39.448Z,19.80
2022-08-17T23:42:10.405Z,21.23
2022-08-17T23:44:39.074Z,17.73
2022-08-17T23:47:07.758Z,20.38
2022-08-17T23:49:36.198Z,19.95
2022-08-17T23:52:07.132Z,19.27
2022-08-17T23:54:44.131Z,26.15
2022-08-17T23:57:17.176Z,17.48
2022-08-17T23:59:44.245Z,21.73
